Time;durP1;ratioP1;P1;durP2;ratioP2;P2;SDS_P1;SDS_P2;PMS_P1;PMS_P2;Temp;Humidity;BMP_temperature;BMP_pressure;BME280_temperature;BME280_humidity;BME280_pressure;Samples;Min_cycle;Max_cycle;Signal;HPM_P1;HPM_P2
2021/01/30 00:00:51;;;;;;;0.68;0.60;;;;;;;;;;5076046;28;20029;-49
2021/01/30 00:03:17;;;;;;;0.95;0.90;;;;;;;;;;5076396;28;20020;-49
2021/01/30 00:05:43;;;;;;;0.75;0.75;;;;;;;;;;5081191;28;20016;-49
2021/01/30 00:08:10;;;;;;;1.13;1.08;;;;;;;;;;5096414;28;20415;-49
2021/01/30 00:10:36;;;;;;;0.43;0.40;;;;;;;;;;5095829;28;20020;-49
2021/01/30 00:13:03;;;;;;;1.25;0.88;;;;;;;;;;5096120;28;20040;-49
2021/01/30 00:15:29;;;;;;;0.65;0.65;;;;;;;;;;5096410;28;20020;-49
2021/01/30 00:17:57;;;;;;;4.70;0.80;;;;;;;;;;5096375;28;20162;-49
2021/01/30 00:20:27;;;;;;;0.75;0.70;;;;;;;;;;5095815;28;20575;-50
2021/01/30 00:22:53;;;;;;;;;;;;;;;;;;5096443;28;20303;-49
2021/01/30 00:25:21;;;;;;;0.50;0.50;;;;;;;;;;5095835;28;19939;-49
2021/01/30 00:27:47;;;;;;;0.88;0.88;;;;;;;;;;5096160;28;20116;-49
2021/01/30 00:30:14;;;;;;;0.90;0.90;;;;;;;;;;5095829;28;20031;-49
2021/01/30 00:32:40;;;;;;;1.40;0.93;;;;;;;;;;5095818;28;20460;-49
2021/01/30 00:35:06;;;;;;;0.75;0.75;;;;;;;;;;5095837;28;20028;-49
2021/01/30 00:37:32;;;;;;;1.83;1.10;;;;;;;;;;5095849;28;20031;-49
2021/01/30 00:39:59;;;;;;;0.77;0.77;;;;;;;;;;5095109;28;20036;-49
2021/01/30 00:42:26;;;;;;;1.17;1.00;;;;;;;;;;5095423;28;20402;-49
2021/01/30 00:44:53;;;;;;;1.80;0.85;;;;;;;;;;5075398;28;20347;-49
2021/01/30 00:47:19;;;;;;;0.60;0.60;;;;;;;;;;5075605;28;20024;-49
2021/01/30 00:49:45;;;;;;;0.40;0.40;;;;;;;;;;5075067;28;20024;-49
2021/01/30 00:52:13;;;;;;;0.65;0.65;;;;;;;;;;5075311;28;20020;-49
2021/01/30 00:54:39;;;;;;;0.50;0.50;;;;;;;;;;5075194;28;20374;-49
2021/01/30 00:57:06;;;;;;;0.40;0.40;;;;;;;;;;5075435;28;20100;-49
2021/01/30 00:59:31;;;;;;;1.13;0.70;;;;;;;;;;5075081;28;20024;-49
2021/01/30 01:01:58;;;;;;;0.75;0.68;;;;;;;;;;5074772;28;20037;-49
2021/01/30 01:04:24;;;;;;;2.53;0.95;;;;;;;;;;5075260;28;20073;-49
2021/01/30 01:06:50;;;;;;;0.88;0.70;;;;;;;;;;5088868;28;20028;-49
2021/01/30 01:09:16;;;;;;;0.93;0.57;;;;;;;;;;5095026;28;20016;-49
2021/01/30 01:11:44;;;;;;;2.08;0.82;;;;;;;;;;5094810;28;20361;-49
2021/01/30 01:14:10;;;;;;;2.17;0.85;;;;;;;;;;5095050;28;20459;-49
2021/01/30 01:16:36;;;;;;;1.13;0.50;;;;;;;;;;5094986;28;20119;-49
2021/01/30 01:19:02;;;;;;;1.00;0.60;;;;;;;;;;5094995;28;20028;-49
2021/01/30 01:21:28;;;;;;;1.85;0.80;;;;;;;;;;5089965;28;20036;-49
2021/01/30 01:23:54;;;;;;;1.45;0.80;;;;;;;;;;5094720;28;20031;-49
2021/01/30 01:26:20;;;;;;;3.20;1.40;;;;;;;;;;5094960;28;20029;-49
2021/01/30 01:28:49;;;;;;;3.83;1.83;;;;;;;;;;5094814;28;20111;-49
2021/01/30 01:31:16;;;;;;;4.13;1.60;;;;;;;;;;5094483;28;20032;-49
2021/01/30 01:33:42;;;;;;;8.25;1.90;;;;;;;;;;5094874;28;20046;-49
2021/01/30 01:36:08;;;;;;;5.35;1.90;;;;;;;;;;5094282;28;20067;-49
2021/01/30 01:38:34;;;;;;;7.07;1.27;;;;;;;;;;5094556;28;20434;-49
2021/01/30 01:41:01;;;;;;;1.38;0.60;;;;;;;;;;5094335;28;20031;-49
2021/01/30 01:43:28;;;;;;;2.35;0.70;;;;;;;;;;5086352;28;20021;-49
2021/01/30 01:46:13;;;;;;;1.35;0.82;;;;;;;;;;5074189;28;20033;-50
2021/01/30 01:48:41;;;;;;;4.35;0.77;;;;;;;;;;5073757;28;20505;-49
2021/01/30 01:51:08;;;;;;;0.90;0.70;;;;;;;;;;5074023;28;20031;-49
2021/01/30 01:53:37;;;;;;;2.80;0.60;;;;;;;;;;5074096;28;20469;-49
2021/01/30 01:56:05;;;;;;;0.65;0.65;;;;;;;;;;5073813;28;20442;-50
2021/01/30 01:58:32;;;;;;;0.80;0.73;;;;;;;;;;5073249;28;20086;-49
2021/01/30 02:00:58;;;;;;;0.50;0.50;;;;;;;;;;5092056;28;20134;-49
2021/01/30 02:03:25;;;;;;;0.93;0.63;;;;;;;;;;5094128;28;20102;-49
2021/01/30 02:05:51;;;;;;;0.50;0.50;;;;;;;;;;5094251;28;20024;-49
2021/01/30 02:08:18;;;;;;;1.40;0.60;;;;;;;;;;5094178;28;20024;-49
2021/01/30 02:10:46;;;;;;;3.83;0.63;;;;;;;;;;5093876;28;20099;-49
2021/01/30 02:13:17;;;;;;;1.10;0.65;;;;;;;;;;5094202;28;20054;-49
2021/01/30 02:15:44;;;;;;;0.50;0.50;;;;;;;;;;5093532;28;20035;-49
2021/01/30 02:18:11;;;;;;;0.57;0.50;;;;;;;;;;5093509;28;20026;-49
2021/01/30 02:20:42;;;;;;;0.30;0.30;;;;;;;;;;5093931;28;20111;-49
2021/01/30 02:23:11;;;;;;;0.30;0.30;;;;;;;;;;5094271;28;20032;-49
2021/01/30 02:25:57;;;;;;;0.30;0.30;;;;;;;;;;5093723;28;20017;-49
2021/01/30 02:28:22;;;;;;;0.98;0.47;;;;;;;;;;5093654;28;20039;-49
2021/01/30 02:30:54;;;;;;;1.95;0.70;;;;;;;;;;5093635;28;20028;-49
2021/01/30 02:33:46;;;;;;;0.40;0.40;;;;;;;;;;5093778;28;20051;-49
2021/01/30 02:36:25;;;;;;;0.57;0.50;;;;;;;;;;5094009;28;20119;-49
2021/01/30 02:38:54;;;;;;;0.40;0.40;;;;;;;;;;5093430;28;20442;-49
2021/01/30 02:41:30;;;;;;;0.50;0.50;;;;;;;;;;5087338;28;20048;-49
2021/01/30 02:43:59;;;;;;;0.60;0.60;;;;;;;;;;5073446;28;20024;-49
2021/01/30 02:46:27;;;;;;;3.10;0.68;;;;;;;;;;5073319;28;20453;-49
2021/01/30 02:48:57;;;;;;;0.60;0.60;;;;;;;;;;5073189;28;20031;-49
2021/01/30 02:51:24;;;;;;;0.57;0.57;;;;;;;;;;5072787;28;20412;-49
2021/01/30 02:53:52;;;;;;;1.65;0.70;;;;;;;;;;5072990;28;20450;-49
2021/01/30 02:56:20;;;;;;;0.80;0.70;;;;;;;;;;5077482;28;20437;-49
2021/01/30 02:58:58;;;;;;;0.43;0.43;;;;;;;;;;5072983;28;20111;-49
2021/01/30 03:01:24;;;;;;;0.50;0.50;;;;;;;;;;5072515;28;20079;-49
2021/01/30 03:03:53;;;;;;;0.75;0.57;;;;;;;;;;5073056;28;20031;-49
2021/01/30 03:06:23;;;;;;;1.00;0.52;;;;;;;;;;5083531;28;20343;-49
2021/01/30 03:08:53;;;;;;;0.50;0.50;;;;;;;;;;5093236;28;20016;-49
2021/01/30 03:11:26;;;;;;;0.40;0.40;;;;;;;;;;5093504;28;20254;-49
2021/01/30 03:13:55;;;;;;;0.30;0.30;;;;;;;;;;5092622;28;20036;-49
2021/01/30 03:16:23;;;;;;;0.60;0.60;;;;;;;;;;5072657;28;20503;-49
2021/01/30 03:18:52;;;;;;;0.40;0.40;;;;;;;;;;5073046;28;20073;-49
2021/01/30 03:21:18;;;;;;;0.60;0.60;;;;;;;;;;5073029;28;20082;-49
2021/01/30 03:23:45;;;;;;;0.40;0.40;;;;;;;;;;5072961;28;20104;-49
2021/01/30 03:26:21;;;;;;;1.25;0.60;;;;;;;;;;5072848;28;20024;-49
2021/01/30 03:28:48;;;;;;;0.70;0.55;;;;;;;;;;5091479;28;20074;-49
2021/01/30 03:31:14;;;;;;;0.50;0.50;;;;;;;;;;5097061;28;20024;-49
2021/01/30 03:33:40;;;;;;;4.03;0.68;;;;;;;;;;5097060;28;20050;-49
2021/01/30 03:36:06;;;;;;;1.83;0.68;;;;;;;;;;5096878;28;20028;-49
2021/01/30 03:38:32;;;;;;;0.32;0.32;;;;;;;;;;5096869;28;20058;-49
2021/01/30 03:40:58;;;;;;;0.75;0.55;;;;;;;;;;5096527;28;20028;-49
2021/01/30 03:43:24;;;;;;;0.40;0.40;;;;;;;;;;5079060;28;20016;-49
2021/01/30 03:45:50;;;;;;;0.47;0.45;;;;;;;;;;5076615;28;20020;-49
2021/01/30 03:48:16;;;;;;;1.13;0.73;;;;;;;;;;5076216;28;20086;-49
2021/01/30 03:50:42;;;;;;;0.57;0.57;;;;;;;;;;5076111;28;20032;-49
2021/01/30 03:53:09;;;;;;;1.00;0.68;;;;;;;;;;5076438;28;20035;-49
2021/01/30 03:55:36;;;;;;;0.77;0.77;;;;;;;;;;5076456;28;20104;-49
2021/01/30 03:58:02;;;;;;;0.75;0.55;;;;;;;;;;5076079;28;20028;-49
2021/01/30 04:00:28;;;;;;;0.63;0.47;;;;;;;;;;5075852;28;20020;-49
2021/01/30 04:02:54;;;;;;;0.40;0.40;;;;;;;;;;5076189;28;20380;-49
2021/01/30 04:05:22;;;;;;;0.40;0.40;;;;;;;;;;5078429;28;20021;-49
2021/01/30 04:07:48;;;;;;;0.47;0.47;;;;;;;;;;5096407;28;20103;-49
2021/01/30 04:10:16;;;;;;;2.20;0.50;;;;;;;;;;5096628;28;20054;-49
2021/01/30 04:12:42;;;;;;;0.47;0.47;;;;;;;;;;5096141;28;20036;-50
2021/01/30 04:15:09;;;;;;;4.07;0.38;;;;;;;;;;5096361;28;20046;-50
2021/01/30 04:17:35;;;;;;;0.40;0.40;;;;;;;;;;5096261;28;20032;-50
2021/01/30 04:20:02;;;;;;;0.45;0.45;;;;;;;;;;5095657;28;20067;-49
2021/01/30 04:22:28;;;;;;;0.57;0.57;;;;;;;;;;5079193;28;20032;-50
2021/01/30 04:24:54;;;;;;;0.40;0.40;;;;;;;;;;5076186;28;20025;-49
2021/01/30 04:27:20;;;;;;;0.77;0.40;;;;;;;;;;5076113;28;20033;-49
2021/01/30 04:29:46;;;;;;;1.33;0.77;;;;;;;;;;5075757;28;20074;-49
2021/01/30 04:32:12;;;;;;;0.43;0.43;;;;;;;;;;5075489;28;20042;-50
2021/01/30 04:34:38;;;;;;;0.40;0.40;;;;;;;;;;5075499;28;20050;-49
2021/01/30 04:37:05;;;;;;;0.40;0.40;;;;;;;;;;5075313;28;20346;-50
2021/01/30 04:39:31;;;;;;;5.57;0.43;;;;;;;;;;5075459;28;20028;-50
2021/01/30 04:42:03;;;;;;;0.63;0.63;;;;;;;;;;5074393;28;20420;-50
2021/01/30 04:44:48;;;;;;;3.20;0.50;;;;;;;;;;5075622;28;20016;-49
2021/01/30 04:47:23;;;;;;;0.20;0.20;;;;;;;;;;5075555;28;20059;-49
2021/01/30 04:49:59;;;;;;;0.40;0.40;;;;;;;;;;5075234;28;20442;-49
2021/01/30 04:52:31;;;;;;;1.20;0.50;;;;;;;;;;5075296;28;20392;-50
2021/01/30 04:55:11;;;;;;;1.95;0.55;;;;;;;;;;5075265;28;20533;-49
2021/01/30 04:57:40;;;;;;;2.23;0.63;;;;;;;;;;5075217;28;20120;-50
2021/01/30 05:00:09;;;;;;;5.63;0.90;;;;;;;;;;5074968;28;20029;-49
2021/01/30 05:02:35;;;;;;;2.17;0.63;;;;;;;;;;5074796;28;20036;-50
2021/01/30 05:05:02;;;;;;;2.58;0.52;;;;;;;;;;5075013;28;20688;-49
2021/01/30 05:07:52;;;;;;;1.75;0.50;;;;;;;;;;5095248;28;20024;-50
2021/01/30 05:10:32;;;;;;;5.05;1.23;;;;;;;;;;5095259;28;20077;-49
2021/01/30 05:13:04;;;;;;;2.63;0.50;;;;;;;;;;5094886;28;20028;-49
2021/01/30 05:15:32;;;;;;;1.85;0.50;;;;;;;;;;5095412;28;20024;-49
2021/01/30 05:18:01;;;;;;;1.02;0.63;;;;;;;;;;5094843;28;20024;-49
2021/01/30 05:20:31;;;;;;;7.38;1.08;;;;;;;;;;5094360;28;20028;-49
2021/01/30 05:22:58;;;;;;;0.35;0.32;;;;;;;;;;5094905;28;20043;-49
2021/01/30 05:25:24;;;;;;;1.23;0.63;;;;;;;;;;5094762;28;20386;-49
2021/01/30 05:27:59;;;;;;;2.10;0.93;;;;;;;;;;5094878;28;20500;-49
2021/01/30 05:30:31;;;;;;;0.73;0.70;;;;;;;;;;5094583;28;20464;-49
2021/01/30 05:33:00;;;;;;;1.75;0.73;;;;;;;;;;5094886;28;20023;-49
2021/01/30 05:35:30;;;;;;;2.65;1.08;;;;;;;;;;5094522;28;20383;-49
2021/01/30 05:37:56;;;;;;;;;;;;;;;;;;5077102;28;20031;-50
2021/01/30 05:40:39;;;;;;;5.82;0.70;;;;;;;;;;5074249;28;19905;-50
2021/01/30 05:43:22;;;;;;;1.75;0.40;;;;;;;;;;5074505;28;20032;-50
2021/01/30 05:45:52;;;;;;;3.90;1.02;;;;;;;;;;5074228;28;20070;-49
2021/01/30 05:48:20;;;;;;;5.40;1.00;;;;;;;;;;5074022;28;20028;-49
2021/01/30 05:50:55;;;;;;;3.83;1.20;;;;;;;;;;5073945;28;20033;-49
2021/01/30 05:53:23;;;;;;;5.70;1.02;;;;;;;;;;5091455;28;20024;-49
2021/01/30 05:55:49;;;;;;;4.25;0.93;;;;;;;;;;5091607;28;20024;-49
2021/01/30 05:58:19;;;;;;;0.55;0.55;;;;;;;;;;5092099;28;20518;-49
2021/01/30 06:00:45;;;;;;;1.70;0.90;;;;;;;;;;5091377;28;20035;-49
2021/01/30 06:03:12;;;;;;;3.97;1.17;;;;;;;;;;5093525;28;20047;-49
2021/01/30 06:05:42;;;;;;;1.75;0.73;;;;;;;;;;5092336;28;20473;-49
2021/01/30 06:08:21;;;;;;;1.33;0.70;;;;;;;;;;5092545;28;20070;-49
2021/01/30 06:10:48;;;;;;;3.38;0.60;;;;;;;;;;5091890;28;20024;-49
2021/01/30 06:13:17;;;;;;;5.32;1.05;;;;;;;;;;5092797;28;20032;-50
2021/01/30 06:15:45;;;;;;;2.70;0.80;;;;;;;;;;5091428;28;20027;-50
2021/01/30 06:18:24;;;;;;;9.18;1.10;;;;;;;;;;5091685;28;20449;-50
2021/01/30 06:20:57;;;;;;;5.78;1.05;;;;;;;;;;5091008;28;20027;-50
2021/01/30 06:23:23;;;;;;;1.90;0.90;;;;;;;;;;5093133;28;20350;-49
2021/01/30 06:25:49;;;;;;;2.70;1.52;;;;;;;;;;5091744;28;20496;-50
2021/01/30 06:28:24;;;;;;;2.58;0.88;;;;;;;;;;5092717;28;20028;-49
2021/01/30 06:30:51;;;;;;;0.82;0.73;;;;;;;;;;5090561;28;20514;-49
2021/01/30 06:33:31;;;;;;;0.22;0.22;;;;;;;;;;5092116;28;20027;-49
2021/01/30 06:36:09;;;;;;;0.80;0.68;;;;;;;;;;5090760;28;20395;-49
2021/01/30 06:38:58;;;;;;;2.25;0.55;;;;;;;;;;5089471;28;20489;-50
2021/01/30 06:41:29;;;;;;;0.55;0.55;;;;;;;;;;5074615;28;20115;-49
2021/01/30 06:43:58;;;;;;;12.75;1.10;;;;;;;;;;5087096;28;20028;-49
2021/01/30 06:46:25;;;;;;;1.58;0.85;;;;;;;;;;5091562;28;20039;-49
2021/01/30 06:48:52;;;;;;;4.95;0.93;;;;;;;;;;5090995;28;20034;-49
2021/01/30 06:51:26;;;;;;;5.57;0.65;;;;;;;;;;5090995;28;20434;-50
2021/01/30 06:53:52;;;;;;;1.02;1.02;;;;;;;;;;5081780;28;20093;-50
2021/01/30 06:56:28;;;;;;;2.13;0.63;;;;;;;;;;5093361;28;20024;-49
2021/01/30 06:59:02;;;;;;;2.17;0.95;;;;;;;;;;5092122;28;20024;-49
2021/01/30 07:01:37;;;;;;;3.65;1.08;;;;;;;;;;5089878;28;20075;-49
2021/01/30 07:04:08;;;;;;;1.95;0.88;;;;;;;;;;5088211;28;20503;-49
2021/01/30 07:06:45;;;;;;;3.03;0.88;;;;;;;;;;5091337;28;20122;-48
2021/01/30 07:09:31;;;;;;;1.92;0.68;;;;;;;;;;5088796;28;20023;-48
2021/01/30 07:12:02;;;;;;;2.13;0.82;;;;;;;;;;5089502;28;20036;-48
2021/01/30 07:14:36;;;;;;;7.47;1.25;;;;;;;;;;5092411;28;20120;-48
2021/01/30 07:17:11;;;;;;;6.88;1.05;;;;;;;;;;5089902;28;20027;-48
2021/01/30 07:19:55;;;;;;;2.42;1.02;;;;;;;;;;5089398;28;20043;-48
2021/01/30 07:22:25;;;;;;;3.28;0.90;;;;;;;;;;5089512;28;20185;-48
2021/01/30 07:24:51;;;;;;;8.07;0.95;;;;;;;;;;5088823;28;20021;-48
2021/01/30 07:27:21;;;;;;;2.15;0.88;;;;;;;;;;5091161;28;20040;-48
2021/01/30 07:29:56;;;;;;;1.05;0.90;;;;;;;;;;5090562;28;20076;-48
2021/01/30 07:32:33;;;;;;;2.50;0.85;;;;;;;;;;5089223;28;20020;-48
2021/01/30 07:35:12;;;;;;;4.28;1.40;;;;;;;;;;5091447;28;20029;-48
2021/01/30 07:37:50;;;;;;;3.83;1.52;;;;;;;;;;5089794;28;20020;-48
2021/01/30 07:40:19;;;;;;;3.20;1.00;;;;;;;;;;5088951;28;20097;-48
2021/01/30 07:42:50;;;;;;;4.88;1.17;;;;;;;;;;5089710;28;20134;-48
2021/01/30 07:45:19;;;;;;;3.42;1.48;;;;;;;;;;5089154;28;20028;-48
2021/01/30 07:47:48;;;;;;;1.73;0.93;;;;;;;;;;5090208;28;20119;-49
2021/01/30 07:50:22;;;;;;;5.00;1.02;;;;;;;;;;5089829;28;20391;-48
2021/01/30 07:52:55;;;;;;;1.75;0.95;;;;;;;;;;5088644;28;20028;-48
2021/01/30 07:55:21;;;;;;;2.55;0.80;;;;;;;;;;5088728;28;20411;-48
2021/01/30 07:58:05;;;;;;;4.35;0.85;;;;;;;;;;5090726;28;20024;-48
2021/01/30 08:00:30;;;;;;;1.40;0.70;;;;;;;;;;5091196;28;20053;-48
2021/01/30 08:03:05;;;;;;;7.35;1.20;;;;;;;;;;5090952;28;20039;-48
2021/01/30 08:05:31;;;;;;;6.35;1.38;;;;;;;;;;5089552;28;20052;-48
2021/01/30 08:08:33;;;;;;;6.85;1.33;;;;;;;;;;5091540;28;20059;-48
2021/01/30 08:11:04;;;;;;;2.30;1.00;;;;;;;;;;5089348;28;20020;-48
2021/01/30 08:13:46;;;;;;;2.03;0.85;;;;;;;;;;5092279;28;20038;-48
2021/01/30 08:16:19;;;;;;;2.20;1.10;;;;;;;;;;5092918;28;20028;-48
2021/01/30 08:18:47;;;;;;;1.02;0.95;;;;;;;;;;5096558;28;20012;-48
2021/01/30 08:21:16;;;;;;;2.13;0.98;;;;;;;;;;5095817;28;20032;-49
2021/01/30 08:24:01;;;;;;;1.50;1.08;;;;;;;;;;5096285;28;20051;-48
2021/01/30 08:26:42;;;;;;;4.45;0.93;;;;;;;;;;5096273;28;20433;-48
2021/01/30 08:29:08;;;;;;;3.13;0.88;;;;;;;;;;5096343;28;20255;-48
2021/01/30 08:31:35;;;;;;;3.05;0.75;;;;;;;;;;5095721;28;20070;-48
2021/01/30 08:34:06;;;;;;;1.05;0.65;;;;;;;;;;5094927;28;20111;-48
2021/01/30 08:36:37;;;;;;;1.10;1.00;;;;;;;;;;5089731;28;20032;-48
2021/01/30 08:39:06;;;;;;;2.03;1.00;;;;;;;;;;5087609;28;20040;-48
2021/01/30 08:41:39;;;;;;;6.93;0.75;;;;;;;;;;5094650;28;20039;-48
2021/01/30 08:44:06;;;;;;;1.95;0.70;;;;;;;;;;5095102;28;20157;-48
2021/01/30 08:46:40;;;;;;;2.08;0.70;;;;;;;;;;5083389;28;20426;-48
2021/01/30 08:49:06;;;;;;;0.73;0.73;;;;;;;;;;5074971;28;20024;-48
2021/01/30 08:51:33;;;;;;;2.58;0.80;;;;;;;;;;5074063;28;20090;-48
2021/01/30 08:54:19;;;;;;;2.85;0.85;;;;;;;;;;5077291;28;20400;-48
2021/01/30 08:56:47;;;;;;;5.93;0.95;;;;;;;;;;5094882;28;20032;-48
2021/01/30 08:59:32;;;;;;;1.45;0.93;;;;;;;;;;5095070;28;20165;-48
2021/01/30 09:01:58;;;;;;;3.13;0.90;;;;;;;;;;5094056;28;20123;-48
2021/01/30 09:04:39;;;;;;;1.17;0.80;;;;;;;;;;5094918;28;20430;-49
2021/01/30 09:07:05;;;;;;;7.68;1.23;;;;;;;;;;5094306;28;20028;-48
2021/01/30 09:09:31;;;;;;;9.68;1.30;;;;;;;;;;5093072;28;20039;-48
2021/01/30 09:11:59;;;;;;;12.60;1.70;;;;;;;;;;5091398;28;20020;-48
2021/01/30 09:14:28;;;;;;;3.72;1.17;;;;;;;;;;5094017;28;20457;-48
2021/01/30 09:16:57;;;;;;;3.08;1.48;;;;;;;;;;5094389;28;20040;-48
2021/01/30 09:19:41;;;;;;;4.25;1.38;;;;;;;;;;5085077;28;20020;-48
2021/01/30 09:22:10;;;;;;;2.63;1.27;;;;;;;;;;5094285;28;20032;-48
2021/01/30 09:24:54;;;;;;;11.27;1.38;;;;;;;;;;5094592;28;20028;-48
2021/01/30 09:27:22;;;;;;;3.63;1.13;;;;;;;;;;5094185;28;20028;-48
2021/01/30 09:29:49;;;;;;;3.83;1.15;;;;;;;;;;5094290;28;20612;-48
2021/01/30 09:32:21;;;;;;;3.40;0.88;;;;;;;;;;5094127;28;20024;-48
2021/01/30 09:34:52;;;;;;;9.65;1.27;;;;;;;;;;5094377;28;20079;-48
2021/01/30 09:37:51;;;;;;;7.85;1.17;;;;;;;;;;5094050;28;20492;-48
2021/01/30 09:40:26;;;;;;;5.32;1.48;;;;;;;;;;5092144;28;20044;-49
2021/01/30 09:43:05;;;;;;;0.95;0.70;;;;;;;;;;5091084;28;20388;-48
2021/01/30 09:45:32;;;;;;;1.80;1.33;;;;;;;;;;5092110;28;20028;-48
2021/01/30 09:47:59;;;;;;;17.23;1.52;;;;;;;;;;5090769;28;20051;-48
2021/01/30 09:50:26;;;;;;;4.97;1.45;;;;;;;;;;5089384;28;20146;-48
2021/01/30 09:52:57;;;;;;;3.55;1.50;;;;;;;;;;5091797;28;20024;-48
2021/01/30 09:55:24;;;;;;;7.28;1.70;;;;;;;;;;5092012;28;20441;-48
2021/01/30 09:57:51;;;;;;;1.05;0.80;;;;;;;;;;5091813;28;20062;-48
2021/01/30 10:00:29;;;;;;;6.47;1.17;;;;;;;;;;5091827;28;20020;-48
2021/01/30 10:03:05;;;;;;;13.95;1.80;;;;;;;;;;5091479;28;20055;-48
2021/01/30 10:05:31;;;;;;;5.18;1.20;;;;;;;;;;5091866;28;20023;-48
2021/01/30 10:07:57;;;;;;;7.93;1.75;;;;;;;;;;5091785;28;20349;-48
2021/01/30 10:10:24;;;;;;;2.55;1.20;;;;;;;;;;5091503;28;20465;-48
2021/01/30 10:12:50;;;;;;;4.75;0.90;;;;;;;;;;5091435;28;20460;-48
2021/01/30 10:15:26;;;;;;;5.05;1.27;;;;;;;;;;5092140;28;20465;-49
2021/01/30 10:17:52;;;;;;;1.83;0.93;;;;;;;;;;5094269;28;20055;-48
2021/01/30 10:20:18;;;;;;;9.00;1.70;;;;;;;;;;5093693;28;20067;-48
2021/01/30 10:22:46;;;;;;;4.35;1.40;;;;;;;;;;5093451;28;20488;-48
2021/01/30 10:25:18;;;;;;;4.40;1.00;;;;;;;;;;5093834;28;20088;-48
2021/01/30 10:27:44;;;;;;;3.40;1.05;;;;;;;;;;5093786;28;20030;-49
2021/01/30 10:30:11;;;;;;;0.40;0.40;;;;;;;;;;5093385;28;20016;-48
2021/01/30 10:32:48;;;;;;;5.32;1.83;;;;;;;;;;5093406;28;20407;-48
2021/01/30 10:35:17;;;;;;;2.95;1.08;;;;;;;;;;5093792;28;20020;-48
2021/01/30 10:37:43;;;;;;;2.88;0.98;;;;;;;;;;5093692;28;20035;-48
2021/01/30 10:40:14;;;;;;;8.07;1.63;;;;;;;;;;5092632;28;20028;-48
2021/01/30 10:42:40;;;;;;;9.35;1.88;;;;;;;;;;5092946;28;20056;-48
2021/01/30 10:45:20;;;;;;;1.90;1.65;;;;;;;;;;5093767;28;20031;-48
2021/01/30 10:48:02;;;;;;;3.25;1.23;;;;;;;;;;5093329;28;20062;-48
2021/01/30 10:50:33;;;;;;;4.85;1.10;;;;;;;;;;5092428;28;20024;-48
2021/01/30 10:53:35;;;;;;;0.50;0.50;;;;;;;;;;5093102;28;20031;-48
2021/01/30 10:56:12;;;;;;;7.88;1.20;;;;;;;;;;5090889;28;20034;-48
2021/01/30 10:58:39;;;;;;;6.72;2.17;;;;;;;;;;5090765;28;20335;-48
2021/01/30 11:01:07;;;;;;;10.93;1.40;;;;;;;;;;5090660;28;20028;-48
2021/01/30 11:03:45;;;;;;;5.97;1.00;;;;;;;;;;5090294;28;20040;-48
2021/01/30 11:06:21;;;;;;;0.30;0.30;;;;;;;;;;5090904;28;20021;-48
2021/01/30 11:08:47;;;;;;;4.10;0.82;;;;;;;;;;5090802;28;20450;-48
2021/01/30 11:11:21;;;;;;;6.22;1.40;;;;;;;;;;5090450;28;20074;-48
2021/01/30 11:13:47;;;;;;;2.53;1.05;;;;;;;;;;5090502;28;20525;-48
2021/01/30 11:16:27;;;;;;;6.35;1.10;;;;;;;;;;5090687;28;20039;-48
2021/01/30 11:18:53;;;;;;;11.70;1.88;;;;;;;;;;5090821;28;20055;-48
2021/01/30 11:21:32;;;;;;;3.45;1.20;;;;;;;;;;5090509;28;20047;-49
2021/01/30 11:23:59;;;;;;;10.20;1.33;;;;;;;;;;5090586;28;20028;-48
2021/01/30 11:26:31;;;;;;;5.32;0.85;;;;;;;;;;5088030;28;20028;-48
2021/01/30 11:28:57;;;;;;;8.55;1.73;;;;;;;;;;5090890;28;20026;-48
2021/01/30 11:31:24;;;;;;;5.57;0.95;;;;;;;;;;5092013;28;20452;-48
2021/01/30 11:33:57;;;;;;;4.95;1.20;;;;;;;;;;5092893;28;20103;-48
2021/01/30 11:36:23;;;;;;;13.18;1.77;;;;;;;;;;5093308;28;20349;-49
2021/01/30 11:39:03;;;;;;;1.52;0.68;;;;;;;;;;5092602;28;20424;-49
2021/01/30 11:41:29;;;;;;;4.03;0.90;;;;;;;;;;5092385;28;20036;-48
2021/01/30 11:43:55;;;;;;;4.90;1.50;;;;;;;;;;5092775;28;20024;-48
2021/01/30 11:46:21;;;;;;;4.22;0.80;;;;;;;;;;5092612;28;20123;-48
2021/01/30 11:48:48;;;;;;;1.63;1.10;;;;;;;;;;5092920;28;20100;-48
2021/01/30 11:51:22;;;;;;;7.10;1.58;;;;;;;;;;5094793;28;20024;-48
2021/01/30 11:53:48;;;;;;;4.95;0.80;;;;;;;;;;5093913;28;20028;-48
2021/01/30 11:56:14;;;;;;;1.52;0.70;;;;;;;;;;5096302;28;20032;-48
2021/01/30 11:58:40;;;;;;;2.58;0.65;;;;;;;;;;5095028;28;20472;-48
2021/01/30 12:01:06;;;;;;;3.55;0.80;;;;;;;;;;5091471;28;20450;-48
2021/01/30 12:03:32;;;;;;;5.55;1.50;;;;;;;;;;5075681;28;20107;-48
2021/01/30 12:05:59;;;;;;;5.05;1.70;;;;;;;;;;5083130;28;20024;-48
2021/01/30 12:08:25;;;;;;;3.17;1.27;;;;;;;;;;5093054;28;20028;-48
2021/01/30 12:10:52;;;;;;;4.72;1.20;;;;;;;;;;5095458;28;20502;-48
2021/01/30 12:13:18;;;;;;;1.33;0.65;;;;;;;;;;5096402;28;20028;-48
2021/01/30 12:15:44;;;;;;;3.63;0.85;;;;;;;;;;5095418;28;20028;-48
2021/01/30 12:18:12;;;;;;;3.35;0.68;;;;;;;;;;5095650;28;20028;-48
2021/01/30 12:20:38;;;;;;;3.25;0.90;;;;;;;;;;5095321;28;20413;-48
2021/01/30 12:23:04;;;;;;;0.70;0.70;;;;;;;;;;5095758;28;20034;-49
2021/01/30 12:25:31;;;;;;;0.52;0.40;;;;;;;;;;5095798;28;20022;-48
2021/01/30 12:27:58;;;;;;;1.88;0.60;;;;;;;;;;5080924;28;20024;-48
2021/01/30 12:30:27;;;;;;;2.60;0.73;;;;;;;;;;5075434;28;20021;-48
2021/01/30 12:32:53;;;;;;;1.73;0.55;;;;;;;;;;5074963;28;20033;-48
2021/01/30 12:35:21;;;;;;;4.50;1.15;;;;;;;;;;5075674;28;20024;-48
2021/01/30 12:37:47;;;;;;;2.83;1.02;;;;;;;;;;5075118;28;20358;-48
2021/01/30 12:40:13;;;;;;;1.10;0.73;;;;;;;;;;5075022;28;20472;-48
2021/01/30 12:42:39;;;;;;;3.17;0.50;;;;;;;;;;5074768;28;20120;-48
2021/01/30 12:45:08;;;;;;;1.27;0.63;;;;;;;;;;5075094;28;20398;-48
2021/01/30 12:47:34;;;;;;;0.75;0.63;;;;;;;;;;5074806;28;20087;-48
2021/01/30 12:50:00;;;;;;;3.45;0.80;;;;;;;;;;5075242;28;20029;-48
2021/01/30 12:52:26;;;;;;;0.77;0.50;;;;;;;;;;5074736;28;20036;-48
2021/01/30 12:54:53;;;;;;;2.20;0.70;;;;;;;;;;5082538;28;20496;-48
2021/01/30 12:57:19;;;;;;;1.80;0.60;;;;;;;;;;5094282;28;20103;-48
2021/01/30 12:59:45;;;;;;;0.50;0.50;;;;;;;;;;5094183;28;20062;-48
2021/01/30 13:02:12;;;;;;;0.77;0.77;;;;;;;;;;5094293;28;20365;-48
2021/01/30 13:04:38;;;;;;;2.83;0.80;;;;;;;;;;5095435;28;20078;-49
2021/01/30 13:07:04;;;;;;;1.88;0.95;;;;;;;;;;5094600;28;20020;-48
2021/01/30 13:09:31;;;;;;;0.32;0.32;;;;;;;;;;5094702;28;20027;-48
2021/01/30 13:11:57;;;;;;;2.25;0.90;;;;;;;;;;5094484;28;20070;-48
2021/01/30 13:14:23;;;;;;;1.45;0.70;;;;;;;;;;5094693;28;20024;-48
2021/01/30 13:16:49;;;;;;;0.75;0.68;;;;;;;;;;5095165;28;20106;-48
2021/01/30 13:19:16;;;;;;;0.90;0.55;;;;;;;;;;5095299;28;20024;-48
2021/01/30 13:21:46;;;;;;;0.70;0.70;;;;;;;;;;5094907;28;20036;-48
2021/01/30 13:24:12;;;;;;;0.77;0.50;;;;;;;;;;5094980;28;20114;-48
2021/01/30 13:26:40;;;;;;;6.20;1.90;;;;;;;;;;5095012;28;20028;-49
2021/01/30 13:29:06;;;;;;;4.10;0.98;;;;;;;;;;5094648;28;20028;-48
2021/01/30 13:31:40;;;;;;;5.97;1.08;;;;;;;;;;5094883;28;20107;-48
2021/01/30 13:34:05;;;;;;;7.22;0.90;;;;;;;;;;5094893;28;20024;-48
2021/01/30 13:36:31;;;;;;;0.73;0.73;;;;;;;;;;5094933;28;20067;-49
2021/01/30 13:38:59;;;;;;;13.93;0.90;;;;;;;;;;5094588;28;20407;-48
2021/01/30 13:41:25;;;;;;;3.53;0.52;;;;;;;;;;5093936;28;20020;-49
2021/01/30 13:43:51;;;;;;;5.07;0.60;;;;;;;;;;5094576;28;20039;-49
2021/01/30 13:46:17;;;;;;;2.78;0.52;;;;;;;;;;5094591;28;20101;-48
2021/01/30 13:48:43;;;;;;;0.90;0.80;;;;;;;;;;5094622;28;20056;-48
2021/01/30 13:51:09;;;;;;;1.48;1.00;;;;;;;;;;5091410;28;20357;-48
2021/01/30 13:53:35;;;;;;;2.30;0.82;;;;;;;;;;5094393;28;20042;-48
2021/01/30 13:56:01;;;;;;;5.38;0.93;;;;;;;;;;5089434;28;20012;-48
2021/01/30 13:58:27;;;;;;;2.85;0.80;;;;;;;;;;5086350;28;20107;-49
2021/01/30 14:00:53;;;;;;;0.40;0.40;;;;;;;;;;5088738;28;20016;-48
2021/01/30 14:03:19;;;;;;;0.85;0.65;;;;;;;;;;5087081;28;20039;-48
2021/01/30 14:05:46;;;;;;;4.32;0.60;;;;;;;;;;5088806;28;20077;-48
2021/01/30 14:08:12;;;;;;;2.33;0.90;;;;;;;;;;5092830;28;20024;-49
2021/01/30 14:10:38;;;;;;;1.58;0.60;;;;;;;;;;5091877;28;20110;-49
2021/01/30 14:13:04;;;;;;;1.88;0.82;;;;;;;;;;5086357;28;20013;-48
2021/01/30 14:15:30;;;;;;;2.05;1.20;;;;;;;;;;5086153;28;20016;-48
2021/01/30 14:17:58;;;;;;;4.13;1.33;;;;;;;;;;5091644;28;20124;-49
2021/01/30 14:20:24;;;;;;;4.20;1.02;;;;;;;;;;5093646;28;20020;-48
2021/01/30 14:22:51;;;;;;;0.88;0.80;;;;;;;;;;5088073;28;20679;-49
2021/01/30 14:25:17;;;;;;;1.80;0.55;;;;;;;;;;5092993;28;20020;-48
2021/01/30 14:27:43;;;;;;;1.08;0.60;;;;;;;;;;5093059;28;20043;-48
2021/01/30 14:30:10;;;;;;;0.60;0.60;;;;;;;;;;5088705;28;20024;-48
2021/01/30 14:32:36;;;;;;;1.20;0.88;;;;;;;;;;5073309;28;20119;-49
2021/01/30 14:35:03;;;;;;;1.50;0.85;;;;;;;;;;5073495;28;20025;-49
2021/01/30 14:37:29;;;;;;;1.55;0.60;;;;;;;;;;5072777;28;20352;-49
2021/01/30 14:39:56;;;;;;;2.60;0.63;;;;;;;;;;5087630;28;20040;-49
2021/01/30 14:42:22;;;;;;;2.40;0.50;;;;;;;;;;5093155;28;20031;-49
2021/01/30 14:44:49;;;;;;;2.85;0.90;;;;;;;;;;5089773;28;20376;-49
2021/01/30 14:47:17;;;;;;;2.47;0.70;;;;;;;;;;5083791;28;20112;-49
2021/01/30 14:49:43;;;;;;;2.90;0.90;;;;;;;;;;5072840;28;20040;-49
2021/01/30 14:52:09;;;;;;;3.17;0.85;;;;;;;;;;5072385;28;20339;-49
2021/01/30 14:54:35;;;;;;;4.80;1.05;;;;;;;;;;5080433;28;20023;-49
2021/01/30 14:57:01;;;;;;;2.70;1.55;;;;;;;;;;5093179;28;20483;-50